Time;durP1;ratioP1;P1;durP2;ratioP2;P2;SDS_P1;SDS_P2;PMS_P1;PMS_P2;Temp;Humidity;BMP_temperature;BMP_pressure;BME280_temperature;BME280_humidity;BME280_pressure;Samples;Min_cycle;Max_cycle;Signal;HPM_P1;HPM_P2
2023/03/29 00:00:48;;;;;;;;;;;;;;;-2.04;60.85;101753.84;107615;1256;66805;-84
2023/03/29 00:03:18;;;;;;;;;;;;;;;-2.07;61.03;101749.45;107600;1255;71383;-84
2023/03/29 00:05:45;;;;;;;;;;;;;;;-2.07;61.16;101750.00;107719;1256;123412;-84
2023/03/29 00:08:13;;;;;;;;;;;;;;;-2.07;61.37;101748.06;107777;1255;60197;-84
2023/03/29 00:10:42;;;;;;;;;;;;;;;-2.06;61.47;101750.77;107270;1254;125144;-84
2023/03/29 00:13:28;;;;;;;;;;;;;;;-2.05;61.75;101754.32;107073;1255;67001;-81
2023/03/29 00:16:26;;;;;;;;;;;;;;;-2.04;61.89;101759.92;107013;1255;72686;-81
2023/03/29 00:19:10;;;;;;;;;;;;;;;-2.04;61.99;101757.45;107038;1256;62662;-81
2023/03/29 00:22:12;;;;;;;;;;;;;;;-2.06;62.02;101764.14;106853;1261;60914;-82
2023/03/29 00:24:57;;;;;;;;;;;;;;;-2.08;62.29;101761.27;107008;1256;75499;-81
2023/03/29 00:27:43;;;;;;;;;;;;;;;-2.07;62.48;101754.26;107042;1255;65713;-81
2023/03/29 00:33:24;;;;;;;;;;;;;;;-2.04;62.79;101759.34;107252;1256;60066;-82
2023/03/29 00:35:57;;;;;;;;;;;;;;;-2.04;62.83;101758.83;107332;1254;125315;-81
2023/03/29 00:38:24;;;;;;;;;;;;;;;-2.05;63.00;101757.21;107357;1256;73915;-82
2023/03/29 00:40:59;;;;;;;;;;;;;;;-2.07;63.15;101754.32;107384;1260;124825;-81
2023/03/29 00:43:27;;;;;;;;;;;;;;;-2.05;63.28;101755.79;107536;1257;72692;-80
2023/03/29 00:45:54;;;;;;;;;;;;;;;-2.03;63.41;101758.75;108113;1256;60127;-83
2023/03/29 00:48:28;;;;;;;;;;;;;;;-2.01;63.56;101764.33;107609;1256;124974;-83
2023/03/29 00:51:02;;;;;;;;;;;;;;;-1.99;63.67;101759.77;107617;1256;75644;-81
2023/03/29 00:53:32;;;;;;;;;;;;;;;-1.98;63.72;101761.63;107990;1255;124791;-81
2023/03/29 00:56:05;;;;;;;;;;;;;;;-1.97;63.88;101755.36;107926;1256;72838;-82
2023/03/29 00:58:37;;;;;;;;;;;;;;;-1.97;64.04;101754.33;107675;1260;125752;-81
2023/03/29 01:01:07;;;;;;;;;;;;;;;-2.00;64.11;101747.89;107816;1253;60906;-81
2023/03/29 01:03:44;;;;;;;;;;;;;;;-1.98;64.27;101751.54;108079;1256;75888;-83
2023/03/29 01:06:21;;;;;;;;;;;;;;;-1.98;64.22;101752.67;107414;1255;123325;-81
2023/03/29 01:08:52;;;;;;;;;;;;;;;-1.99;64.37;101751.43;107667;1257;72689;-82
2023/03/29 01:11:37;;;;;;;;;;;;;;;-2.00;64.49;101749.79;107559;1259;124880;-82
2023/03/29 01:14:14;;;;;;;;;;;;;;;-1.99;64.69;101751.58;107288;1255;61180;-83
2023/03/29 01:16:47;;;;;;;;;;;;;;;-1.99;64.74;101752.12;107326;1256;125025;-84
2023/03/29 01:19:14;;;;;;;;;;;;;;;-1.99;64.79;101745.05;107510;1256;65523;-84
2023/03/29 01:21:43;;;;;;;;;;;;;;;-2.00;64.95;101743.75;107452;1254;71092;-83
2023/03/29 01:24:23;;;;;;;;;;;;;;;-2.02;64.97;101744.89;107614;1256;124647;-83
2023/03/29 01:26:59;;;;;;;;;;;;;;;-2.04;65.14;101738.91;107698;1256;60110;-83
2023/03/29 01:29:42;;;;;;;;;;;;;;;-2.06;65.22;101737.55;107426;1255;124506;-83
2023/03/29 01:32:29;;;;;;;;;;;;;;;-2.07;65.39;101734.34;107555;1259;67414;-83
2023/03/29 01:35:10;;;;;;;;;;;;;;;-2.09;65.32;101735.52;107059;1256;124638;-84
2023/03/29 01:37:49;;;;;;;;;;;;;;;-2.10;65.55;101731.48;107317;1255;60070;-84
2023/03/29 01:40:17;;;;;;;;;;;;;;;-2.11;65.59;101729.83;107627;1255;62125;-83
2023/03/29 01:43:09;;;;;;;;;;;;;;;-2.11;65.67;101728.23;107918;1257;76488;-81
2023/03/29 01:45:46;;;;;;;;;;;;;;;-2.12;65.91;101727.10;108217;1256;67247;-81
2023/03/29 01:48:26;;;;;;;;;;;;;;;-2.14;65.98;101724.08;107868;1256;124396;-81
2023/03/29 01:50:55;;;;;;;;;;;;;;;-2.16;66.05;101720.86;107359;1255;62121;-82
2023/03/29 01:53:42;;;;;;;;;;;;;;;-2.17;66.14;101728.13;107739;1255;124754;-81
2023/03/29 01:56:11;;;;;;;;;;;;;;;-2.19;66.18;101726.35;107840;1256;75271;-82
2023/03/29 01:58:43;;;;;;;;;;;;;;;-2.20;66.29;101733.98;107628;1256;124699;-82
2023/03/29 02:01:10;;;;;;;;;;;;;;;-2.21;66.31;101737.02;108011;1253;71158;-84
2023/03/29 02:03:41;;;;;;;;;;;;;;;-2.22;66.53;101732.28;107793;1256;60570;-83
2023/03/29 02:06:12;;;;;;;;;;;;;;;-2.24;66.47;101731.25;107758;1254;125490;-83
2023/03/29 02:08:39;;;;;;;;;;;;;;;-2.25;66.63;101730.25;108029;1255;74688;-82
2023/03/29 02:11:07;;;;;;;;;;;;;;;-2.26;66.80;101733.33;107823;1255;124643;-82
2023/03/29 02:13:34;;;;;;;;;;;;;;;-2.25;66.77;101736.41;108075;1256;71472;-81
2023/03/29 02:16:05;;;;;;;;;;;;;;;-2.27;66.81;101736.86;107874;1256;60372;-81
2023/03/29 02:18:33;;;;;;;;;;;;;;;-2.27;67.03;101736.95;107670;1257;124407;-82
2023/03/29 02:21:00;;;;;;;;;;;;;;;-2.28;67.09;101737.92;107788;1256;74033;-82
2023/03/29 02:23:33;;;;;;;;;;;;;;;-2.27;67.12;101736.42;107569;1256;124622;-82
2023/03/29 02:26:00;;;;;;;;;;;;;;;-2.28;67.13;101737.44;107969;1256;71158;-84
2023/03/29 02:28:39;;;;;;;;;;;;;;;-2.29;67.19;101744.25;107487;1254;125541;-82
2023/03/29 02:31:20;;;;;;;;;;;;;;;-2.28;67.25;101749.93;107620;1255;62013;-82
2023/03/29 02:33:51;;;;;;;;;;;;;;;-2.27;67.26;101746.48;107648;1255;74582;-84
2023/03/29 02:36:30;;;;;;;;;;;;;;;-2.26;67.30;101741.91;108057;1257;125171;-84
2023/03/29 02:38:57;;;;;;;;;;;;;;;-2.24;67.46;101740.33;107891;1256;71722;-83
2023/03/29 02:41:24;;;;;;;;;;;;;;;-2.21;67.43;101737.33;107627;1258;125099;-84
2023/03/29 02:44:10;;;;;;;;;;;;;;;-2.20;67.40;101735.38;107578;1256;60289;-84
2023/03/29 02:46:37;;;;;;;;;;;;;;;-2.18;67.46;101735.73;107492;1256;125670;-82
2023/03/29 02:49:05;;;;;;;;;;;;;;;-2.15;67.58;101733.83;107629;1256;66825;-80
2023/03/29 02:51:33;;;;;;;;;;;;;;;-2.11;67.52;101733.25;107738;1256;71376;-80
2023/03/29 02:54:01;;;;;;;;;;;;;;;-2.08;67.51;101730.59;107772;1258;125267;-80
2023/03/29 02:56:29;;;;;;;;;;;;;;;-2.06;67.52;101729.60;107815;1255;63083;-80
2023/03/29 02:58:56;;;;;;;;;;;;;;;-2.05;67.59;101728.83;107572;1255;125066;-80
2023/03/29 03:01:25;;;;;;;;;;;;;;;-2.03;67.46;101726.91;108231;1256;67008;-80
2023/03/29 03:03:52;;;;;;;;;;;;;;;-2.03;67.48;101728.33;107838;1256;72308;-81
2023/03/29 03:06:28;;;;;;;;;;;;;;;-2.03;67.51;101727.29;107792;1256;124450;-80
2023/03/29 03:08:57;;;;;;;;;;;;;;;-2.05;67.43;101728.32;107818;1256;60274;-82
2023/03/29 03:11:24;;;;;;;;;;;;;;;-2.04;67.41;101728.89;107931;1259;124382;-83
2023/03/29 03:13:51;;;;;;;;;;;;;;;-2.06;67.54;101725.09;107608;1256;66968;-83
2023/03/29 03:16:18;;;;;;;;;;;;;;;-2.08;67.55;101727.69;107440;1256;125013;-82
2023/03/29 03:18:45;;;;;;;;;;;;;;;-2.10;67.51;101721.14;107613;1258;61706;-83
2023/03/29 03:21:13;;;;;;;;;;;;;;;-2.13;67.47;101720.34;107565;1255;61351;-82
2023/03/29 03:23:42;;;;;;;;;;;;;;;-2.17;67.44;101724.88;107295;1262;124807;-84
2023/03/29 03:26:09;;;;;;;;;;;;;;;-2.21;67.50;101724.65;107425;1261;66761;-82
2023/03/29 03:28:40;;;;;;;;;;;;;;;-2.26;67.56;101721.27;107459;1257;124773;-83
2023/03/29 03:31:07;;;;;;;;;;;;;;;-2.30;67.51;101723.98;107519;1256;60772;-83
2023/03/29 03:33:34;;;;;;;;;;;;;;;-2.34;67.61;101725.01;107391;1254;62208;-83
2023/03/29 03:36:05;;;;;;;;;;;;;;;-2.38;67.74;101721.58;107484;1256;124547;-82
2023/03/29 03:38:51;;;;;;;;;;;;;;;-2.41;67.78;101718.69;107566;1256;67532;-83
2023/03/29 03:41:19;;;;;;;;;;;;;;;-2.45;67.81;101721.59;107385;1256;124609;-84
2023/03/29 03:43:52;;;;;;;;;;;;;;;-2.49;67.89;101716.38;107744;1255;62422;-84
2023/03/29 03:46:21;;;;;;;;;;;;;;;-2.53;67.86;101719.82;107543;1256;124672;-84
2023/03/29 03:48:47;;;;;;;;;;;;;;;-2.57;67.95;101718.75;107771;1256;75458;-83
2023/03/29 03:51:15;;;;;;;;;;;;;;;-2.61;67.97;101721.64;107636;1256;67399;-83
2023/03/29 03:53:42;;;;;;;;;;;;;;;-2.64;68.06;101724.95;107570;1256;124517;-80
2023/03/29 03:56:12;;;;;;;;;;;;;;;-2.68;68.14;101723.04;107809;1256;61835;-80
2023/03/29 03:58:39;;;;;;;;;;;;;;;-2.72;68.22;101719.95;107923;1253;124681;-81
2023/03/29 04:01:07;;;;;;;;;;;;;;;-2.75;68.29;101723.94;107780;1254;75447;-78
2023/03/29 04:03:38;;;;;;;;;;;;;;;-2.79;68.33;101727.05;108132;1254;64501;-77
2023/03/29 04:06:05;;;;;;;;;;;;;;;-2.82;68.42;101731.71;108010;1254;124869;-79
2023/03/29 04:08:35;;;;;;;;;;;;;;;-2.85;68.48;101734.89;108079;1254;60349;-79
2023/03/29 04:11:03;;;;;;;;;;;;;;;-2.87;68.57;101729.46;107844;1256;124593;-79
2023/03/29 04:13:33;;;;;;;;;;;;;;;-2.89;68.74;101734.48;107430;1256;75491;-81
2023/03/29 04:16:00;;;;;;;;;;;;;;;-2.90;68.80;101735.21;107712;1254;67005;-81
2023/03/29 04:18:27;;;;;;;;;;;;;;;-2.91;68.86;101735.61;107664;1253;124385;-81
2023/03/29 04:20:54;;;;;;;;;;;;;;;-2.93;68.91;101735.48;107560;1253;61136;-81
2023/03/29 04:23:21;;;;;;;;;;;;;;;-2.94;68.89;101734.40;107514;1254;124637;-81
2023/03/29 04:25:48;;;;;;;;;;;;;;;-2.94;69.03;101731.80;107572;1254;75988;-81
2023/03/29 04:28:16;;;;;;;;;;;;;;;-2.95;69.17;101730.36;107888;1253;65884;-80
2023/03/29 04:30:45;;;;;;;;;;;;;;;-2.94;69.07;101729.72;107697;1254;71994;-81
2023/03/29 04:33:18;;;;;;;;;;;;;;;-2.94;69.17;101726.98;107866;1254;61972;-84
2023/03/29 04:35:45;;;;;;;;;;;;;;;-2.92;69.17;101730.08;107736;1253;125413;-81
2023/03/29 04:38:12;;;;;;;;;;;;;;;-2.90;69.21;101732.66;107864;1259;75474;-78
2023/03/29 04:40:39;;;;;;;;;;;;;;;-2.87;69.34;101730.86;107908;1253;125314;-81
2023/03/29 04:43:06;;;;;;;;;;;;;;;-2.83;69.39;101731.58;107777;1254;73920;-79
2023/03/29 04:45:33;;;;;;;;;;;;;;;-2.35;70.48;101735.17;107596;1254;61839;-81
2023/03/29 04:48:07;;;;;;;;;;;;;;;-1.15;71.73;101724.23;107572;1253;124848;-81
2023/03/29 04:50:35;;;;;;;;;;;;;;;0.26;71.53;101719.73;107903;1253;74170;-79
2023/03/29 04:53:04;;;;;;;;;;;;;;;1.55;70.78;101714.23;107656;1256;125552;-80
2023/03/29 04:55:31;;;;;;;;;;;;;;;2.76;69.59;101709.67;107602;1257;70991;-80
2023/03/29 04:57:59;;;;;;;;;;;;;;;3.70;68.18;101706.30;107627;1254;60487;-81
2023/03/29 05:00:26;;;;;;;;;;;;;;;3.97;66.22;101703.81;107539;1254;124809;-80
2023/03/29 05:02:53;;;;;;;;;;;;;;;3.85;64.41;101702.80;107468;1262;75429;-79
2023/03/29 05:05:20;;;;;;;;;;;;;;;3.46;63.37;101699.29;107477;1258;125016;-78
2023/03/29 05:07:49;;;;;;;;;;;;;;;3.05;63.02;101699.76;107712;1253;71051;-79
2023/03/29 05:10:16;;;;;;;;;;;;;;;2.69;62.85;101702.40;108066;1255;61855;-81
2023/03/29 05:12:52;;;;;;;;;;;;;;;2.39;62.66;101703.15;107755;1258;60050;-85
2023/03/29 05:15:20;;;;;;;;;;;;;;;2.13;62.77;101702.15;107810;1257;76925;-81
2023/03/29 05:17:47;;;;;;;;;;;;;;;1.95;62.80;101699.46;107703;1254;125049;-80
2023/03/29 05:20:15;;;;;;;;;;;;;;;1.84;62.93;101703.08;107856;1254;72569;-81
2023/03/29 05:22:42;;;;;;;;;;;;;;;1.77;63.08;101703.41;107691;1254;125427;-81
2023/03/29 05:25:12;;;;;;;;;;;;;;;1.70;63.02;101698.42;107813;1259;61862;-80
2023/03/29 05:27:39;;;;;;;;;;;;;;;1.69;63.37;101698.83;108046;1254;75737;-80
2023/03/29 05:30:07;;;;;;;;;;;;;;;1.72;63.40;101697.89;107607;1260;124840;-80
2023/03/29 05:32:36;;;;;;;;;;;;;;;1.69;63.32;101696.29;107985;1259;71320;-80
2023/03/29 05:35:03;;;;;;;;;;;;;;;1.69;63.29;101698.69;107890;1260;125685;-81
2023/03/29 05:37:32;;;;;;;;;;;;;;;1.66;63.38;101699.52;107856;1254;61130;-81
2023/03/29 05:39:59;;;;;;;;;;;;;;;1.64;63.21;101698.85;107897;1254;76131;-81
2023/03/29 05:42:26;;;;;;;;;;;;;;;1.62;63.12;101705.80;108150;1257;124970;-81
2023/03/29 05:44:54;;;;;;;;;;;;;;;1.59;63.31;101705.87;107943;1259;72713;-81
2023/03/29 05:47:22;;;;;;;;;;;;;;;1.55;63.25;101703.34;107785;1256;125155;-82
2023/03/29 05:49:50;;;;;;;;;;;;;;;1.51;63.30;101703.01;107867;1257;61950;-81
2023/03/29 05:52:18;;;;;;;;;;;;;;;1.51;63.34;101701.80;107747;1256;74953;-81
2023/03/29 05:54:45;;;;;;;;;;;;;;;1.49;63.42;101700.29;107659;1254;66333;-81
2023/03/29 05:57:12;;;;;;;;;;;;;;;1.44;63.22;101703.55;107640;1254;72972;-81
2023/03/29 05:59:47;;;;;;;;;;;;;;;1.40;63.11;101704.07;107653;1257;124507;-81
2023/03/29 06:02:17;;;;;;;;;;;;;;;1.38;63.38;101701.85;107407;1260;62066;-80
2023/03/29 06:04:45;;;;;;;;;;;;;;;1.39;63.40;101704.71;107194;1259;124944;-81
2023/03/29 06:07:13;;;;;;;;;;;;;;;1.40;63.43;101706.83;107418;1260;67015;-81
2023/03/29 06:09:41;;;;;;;;;;;;;;;1.37;63.31;101703.52;107366;1255;71123;-81
2023/03/29 06:12:08;;;;;;;;;;;;;;;1.35;63.46;101703.55;107296;1260;124403;-81
2023/03/29 06:14:36;;;;;;;;;;;;;;;1.35;63.33;101702.69;107468;1257;61773;-82
2023/03/29 06:17:04;;;;;;;;;;;;;;;1.30;63.31;101699.88;107504;1255;124306;-82
2023/03/29 06:19:31;;;;;;;;;;;;;;;1.30;63.38;101699.13;107553;1256;65783;-81
2023/03/29 06:21:58;;;;;;;;;;;;;;;1.29;63.52;101700.80;107451;1261;71107;-81
2023/03/29 06:24:25;;;;;;;;;;;;;;;1.28;63.34;101697.30;107713;1256;124512;-81
2023/03/29 06:26:52;;;;;;;;;;;;;;;1.28;63.40;101700.06;107768;1257;60411;-81
2023/03/29 06:29:19;;;;;;;;;;;;;;;1.30;63.48;101698.86;107683;1256;124609;-81
2023/03/29 06:31:47;;;;;;;;;;;;;;;1.34;63.48;101700.73;107537;1260;67075;-81
2023/03/29 06:34:15;;;;;;;;;;;;;;;1.38;63.53;101701.00;107551;1257;70184;-81
2023/03/29 06:36:42;;;;;;;;;;;;;;;1.42;63.66;101700.96;107660;1255;124466;-81
2023/03/29 06:39:12;;;;;;;;;;;;;;;1.47;63.36;101703.23;108293;1254;60545;-81
2023/03/29 06:41:39;;;;;;;;;;;;;;;1.52;63.52;101703.09;107460;1257;124182;-81
2023/03/29 06:44:07;;;;;;;;;;;;;;;1.56;63.44;101702.02;107582;1257;65442;-81
2023/03/29 06:46:37;;;;;;;;;;;;;;;1.60;63.30;101698.54;107826;1258;125122;-81
2023/03/29 06:49:05;;;;;;;;;;;;;;;1.65;63.27;101699.72;107958;1258;60342;-81
2023/03/29 06:51:32;;;;;;;;;;;;;;;1.70;63.15;101700.46;107672;1259;61838;-81
2023/03/29 06:53:59;;;;;;;;;;;;;;;1.74;63.01;101700.63;107498;1257;124783;-81
2023/03/29 06:56:26;;;;;;;;;;;;;;;1.80;62.80;101702.41;107537;1256;65468;-81
2023/03/29 06:58:52;;;;;;;;;;;;;;;1.85;62.74;101699.35;107454;1257;124484;-81
2023/03/29 07:01:26;;;;;;;;;;;;;;;1.90;62.37;101699.73;107758;1254;60369;-80
2023/03/29 07:03:53;;;;;;;;;;;;;;;1.94;62.29;101701.45;107974;1253;60774;-81
2023/03/29 07:06:21;;;;;;;;;;;;;;;1.98;62.16;101701.21;107519;1254;125122;-81
2023/03/29 07:08:50;;;;;;;;;;;;;;;2.04;61.92;101694.34;107518;1263;67156;-81
2023/03/29 07:11:19;;;;;;;;;;;;;;;2.09;61.78;101690.23;107375;1260;124075;-81
2023/03/29 07:13:47;;;;;;;;;;;;;;;2.14;61.61;101683.70;107538;1256;62185;-82
2023/03/29 07:16:15;;;;;;;;;;;;;;;2.20;61.74;101679.61;107958;1260;62108;-82
2023/03/29 07:18:42;;;;;;;;;;;;;;;2.26;61.46;101679.02;107998;1254;123935;-82
2023/03/29 07:21:11;;;;;;;;;;;;;;;2.31;61.55;101683.05;107716;1254;67388;-81
2023/03/29 07:23:39;;;;;;;;;;;;;;;2.38;61.37;101684.02;107640;1257;127609;-82
2023/03/29 07:26:06;;;;;;;;;;;;;;;2.44;61.43;101682.41;107575;1260;62358;-82
2023/03/29 07:28:36;;;;;;;;;;;;;;;2.50;61.26;101680.58;107663;1254;124705;-82
2023/03/29 07:31:09;;;;;;;;;;;;;;;2.56;61.00;101679.63;107719;1259;73818;-82
2023/03/29 07:33:36;;;;;;;;;;;;;;;2.61;60.97;101671.33;107547;1259;65585;-82
2023/03/29 07:36:04;;;;;;;;;;;;;;;2.68;60.84;101674.60;107542;1260;124100;-82
2023/03/29 07:38:32;;;;;;;;;;;;;;;2.74;60.70;101672.29;107737;1254;60486;-82
2023/03/29 07:41:01;;;;;;;;;;;;;;;2.79;60.45;101666.50;107418;1255;124403;-82
2023/03/29 07:43:29;;;;;;;;;;;;;;;2.84;60.05;101662.59;107498;1257;73930;-82
2023/03/29 07:46:00;;;;;;;;;;;;;;;2.91;59.80;101656.46;107570;1257;65975;-81
2023/03/29 07:48:28;;;;;;;;;;;;;;;2.98;59.54;101647.61;108509;1253;124453;-82
2023/03/29 07:50:57;;;;;;;;;;;;;;;3.05;59.52;101644.45;107517;1254;61824;-82
2023/03/29 07:53:24;;;;;;;;;;;;;;;3.14;59.31;101642.60;107475;1254;124394;-80
2023/03/29 07:55:53;;;;;;;;;;;;;;;3.23;59.42;101636.13;107527;1254;75505;-80
2023/03/29 07:58:20;;;;;;;;;;;;;;;3.33;59.16;101637.83;107993;1259;124430;-80
2023/03/29 08:00:50;;;;;;;;;;;;;;;3.40;58.80;101639.55;108029;1256;72755;-82
2023/03/29 08:03:17;;;;;;;;;;;;;;;3.43;58.52;101635.77;107326;1261;60777;-82
2023/03/29 08:05:44;;;;;;;;;;;;;;;3.49;58.54;101639.48;107448;1260;124739;-82
2023/03/29 08:08:12;;;;;;;;;;;;;;;3.58;58.62;101633.48;107690;1258;74137;-82
2023/03/29 08:10:41;;;;;;;;;;;;;;;3.67;58.43;101635.14;107488;1254;125028;-82
2023/03/29 08:13:12;;;;;;;;;;;;;;;3.75;58.15;101629.52;107591;1257;71868;-82
2023/03/29 08:15:40;;;;;;;;;;;;;;;3.79;57.95;101632.77;107199;1257;60134;-82
2023/03/29 08:18:08;;;;;;;;;;;;;;;3.84;57.80;101633.30;107327;1259;124870;-82
2023/03/29 08:20:35;;;;;;;;;;;;;;;3.88;57.67;101633.42;107372;1256;75361;-82
2023/03/29 08:23:03;;;;;;;;;;;;;;;3.92;57.49;101630.36;107423;1256;124808;-82
2023/03/29 08:25:30;;;;;;;;;;;;;;;3.97;57.37;101627.88;107494;1257;71268;-82
2023/03/29 08:27:57;;;;;;;;;;;;;;;4.03;57.32;101627.59;107562;1257;62173;-82
2023/03/29 08:30:24;;;;;;;;;;;;;;;4.06;56.67;101626.77;107496;1260;124411;-82
2023/03/29 08:32:52;;;;;;;;;;;;;;;4.05;56.54;101631.55;107372;1257;74666;-82
2023/03/29 08:35:19;;;;;;;;;;;;;;;4.08;56.32;101625.30;107481;1257;124646;-82
2023/03/29 08:37:46;;;;;;;;;;;;;;;4.13;56.43;101625.27;107405;1257;72363;-82
2023/03/29 08:40:20;;;;;;;;;;;;;;;4.19;56.02;101618.23;107675;1258;62404;-80
2023/03/29 08:42:52;;;;;;;;;;;;;;;4.26;55.94;101618.67;107682;1258;61192;-81
2023/03/29 08:45:22;;;;;;;;;;;;;;;4.34;55.65;101616.73;107700;1255;75500;-82
2023/03/29 08:47:59;;;;;;;;;;;;;;;4.39;55.37;101614.83;107792;1257;124641;-84
2023/03/29 08:50:32;;;;;;;;;;;;;;;4.41;54.82;101605.56;108149;1257;72989;-82
2023/03/29 08:53:00;;;;;;;;;;;;;;;4.42;54.59;101601.05;107672;1257;124526;-82
2023/03/29 08:55:36;;;;;;;;;;;;;;;4.44;54.35;101597.73;107508;1257;62826;-82
2023/03/29 08:58:06;;;;;;;;;;;;;;;4.49;54.12;101593.87;107446;1257;73965;-82
2023/03/29 09:00:39;;;;;;;;;;;;;;;4.54;53.84;101592.59;108981;1254;124664;-82
2023/03/29 09:03:15;;;;;;;;;;;;;;;4.62;53.70;101592.61;108955;1254;72702;-82
2023/03/29 09:05:43;;;;;;;;;;;;;;;4.67;53.08;101591.57;108927;1254;124039;-82
2023/03/29 09:08:20;;;;;;;;;;;;;;;4.70;52.93;101591.91;109061;1254;60159;-81
2023/03/29 09:10:59;;;;;;;;;;;;;;;4.78;52.77;101589.23;108451;1256;124300;-81
2023/03/29 09:13:36;;;;;;;;;;;;;;;4.84;52.26;101587.73;107641;1254;67061;-82
2023/03/29 09:16:07;;;;;;;;;;;;;;;4.87;51.81;101587.05;107482;1254;72702;-82
2023/03/29 09:18:48;;;;;;;;;;;;;;;4.92;51.77;101586.46;107449;1256;124567;-81
2023/03/29 09:21:24;;;;;;;;;;;;;;;4.99;51.75;101583.42;108589;1254;60735;-81
2023/03/29 09:23:57;;;;;;;;;;;;;;;5.05;51.59;101587.25;107694;1260;124754;-81
2023/03/29 09:26:24;;;;;;;;;;;;;;;5.09;51.43;101587.14;107670;1260;66722;-81
2023/03/29 09:28:59;;;;;;;;;;;;;;;5.13;51.32;101590.29;107897;1254;125364;-81
2023/03/29 09:31:27;;;;;;;;;;;;;;;5.18;51.09;101589.24;107845;1254;62205;-81
2023/03/29 09:33:57;;;;;;;;;;;;;;;5.24;51.20;101586.61;107691;1254;62115;-81
2023/03/29 09:36:30;;;;;;;;;;;;;;;5.34;51.36;101583.60;107624;1254;124250;-81
2023/03/29 09:38:57;;;;;;;;;;;;;;;5.48;51.21;101583.55;108686;1254;246962;-82
2023/03/29 09:42:00;;;;;;;;;;;;;;;5.55;50.70;101578.38;107474;1254;124866;-81
2023/03/29 09:44:37;;;;;;;;;;;;;;;5.63;50.78;101571.50;107407;1266;62117;-81
2023/03/29 09:47:12;;;;;;;;;;;;;;;5.73;50.55;101570.19;107415;1260;125217;-81
2023/03/29 09:49:39;;;;;;;;;;;;;;;5.78;50.30;101564.02;107503;1260;74343;-82
2023/03/29 09:52:08;;;;;;;;;;;;;;;5.85;50.46;101567.58;107369;1260;67067;-81
2023/03/29 09:54:35;;;;;;;;;;;;;;;5.95;50.35;101567.95;107308;1260;124308;-82
2023/03/29 09:57:02;;;;;;;;;;;;;;;6.01;49.74;101558.61;107422;1267;62041;-82
2023/03/29 09:59:29;;;;;;;;;;;;;;;6.05;49.17;101557.72;107381;1260;124321;-81
2023/03/29 10:02:08;;;;;;;;;;;;;;;6.07;49.12;101553.17;107088;1260;74210;-80
2023/03/29 10:04:38;;;;;;;;;;;;;;;6.12;48.96;101548.54;106829;1261;124748;-80
2023/03/29 10:07:05;;;;;;;;;;;;;;;6.15;48.66;101549.42;107064;1260;73296;-80
2023/03/29 10:09:33;;;;;;;;;;;;;;;6.19;48.60;101541.30;106997;1266;62204;-80
2023/03/29 10:12:01;;;;;;;;;;;;;;;6.27;48.69;101542.57;106918;1260;124537;-80
2023/03/29 10:14:32;;;;;;;;;;;;;;;6.32;48.26;101538.52;106880;1260;74454;-80
2023/03/29 10:16:59;;;;;;;;;;;;;;;6.38;48.33;101537.27;107032;1260;124757;-80
2023/03/29 10:19:33;;;;;;;;;;;;;;;6.47;48.16;101534.41;107294;1257;73445;-80
2023/03/29 10:22:21;;;;;;;;;;;;;;;6.54;48.06;101529.73;108777;1256;60183;-80
2023/03/29 10:24:50;;;;;;;;;;;;;;;6.62;47.93;101528.58;109066;1257;60938;-80
2023/03/29 10:27:22;;;;;;;;;;;;;;;6.70;47.92;101525.88;108037;1256;75255;-80
2023/03/29 10:29:49;;;;;;;;;;;;;;;6.76;47.90;101522.73;107812;1257;124592;-80
2023/03/29 10:32:19;;;;;;;;;;;;;;;6.85;48.00;101521.77;107632;1256;71253;-80
2023/03/29 10:34:46;;;;;;;;;;;;;;;6.93;47.58;101521.50;107879;1256;125328;-80
2023/03/29 10:37:15;;;;;;;;;;;;;;;6.95;47.22;101515.66;107694;1255;60320;-81
2023/03/29 10:39:42;;;;;;;;;;;;;;;6.96;47.24;101514.67;108005;1257;75497;-80
2023/03/29 10:42:10;;;;;;;;;;;;;;;7.02;47.36;101514.84;107259;1257;124218;-80
2023/03/29 10:44:37;;;;;;;;;;;;;;;7.07;46.88;101511.73;107602;1257;70436;-81
2023/03/29 10:47:08;;;;;;;;;;;;;;;7.08;46.78;101507.27;107445;1256;124830;-81
2023/03/29 10:49:39;;;;;;;;;;;;;;;7.12;46.95;101506.28;107826;1260;60729;-79
2023/03/29 10:52:08;;;;;;;;;;;;;;;7.19;46.97;101504.35;107775;1256;75460;-79
2023/03/29 10:54:35;;;;;;;;;;;;;;;7.25;47.00;101499.41;107721;1256;124106;-79
2023/03/29 10:57:03;;;;;;;;;;;;;;;7.32;46.80;101495.21;108385;1257;71221;-80
2023/03/29 10:59:43;;;;;;;;;;;;;;;7.38;46.83;101494.65;107527;1260;124620;-79
2023/03/29 11:02:13;;;;;;;;;;;;;;;7.47;46.72;101486.86;107665;1257;60773;-79
2023/03/29 11:04:59;;;;;;;;;;;;;;;7.50;46.56;101479.32;107514;1257;124383;-80
2023/03/29 11:07:31;;;;;;;;;;;;;;;7.59;46.82;101479.79;107740;1256;65616;-79
2023/03/29 11:10:00;;;;;;;;;;;;;;;7.70;46.73;101474.75;107757;1256;72734;-79
2023/03/29 11:12:33;;;;;;;;;;;;;;;7.75;46.61;101474.80;107617;1257;124104;-79
2023/03/29 11:15:00;;;;;;;;;;;;;;;7.81;46.52;101470.52;107571;1257;61380;-80
2023/03/29 11:17:27;;;;;;;;;;;;;;;7.85;46.37;101468.81;107547;1259;124870;-80
2023/03/29 11:19:57;;;;;;;;;;;;;;;7.92;46.42;101462.67;107709;1257;66033;-80
2023/03/29 11:22:27;;;;;;;;;;;;;;;7.96;46.45;101462.70;107958;1256;124897;-80
2023/03/29 11:24:58;;;;;;;;;;;;;;;8.02;46.45;101462.59;108138;1259;62244;-80
2023/03/29 11:27:26;;;;;;;;;;;;;;;8.08;46.38;101461.84;108065;1259;61528;-80
2023/03/29 11:30:06;;;;;;;;;;;;;;;8.11;46.36;101452.70;107957;1257;124225;-80
2023/03/29 11:32:52;;;;;;;;;;;;;;;8.19;46.51;101446.27;107764;1256;65540;-79
2023/03/29 11:35:28;;;;;;;;;;;;;;;8.33;46.49;101446.70;107814;1256;124802;-79
2023/03/29 11:38:01;;;;;;;;;;;;;;;8.47;46.60;101437.09;107714;1260;60359;-80
2023/03/29 11:40:39;;;;;;;;;;;;;;;8.65;46.52;101433.83;107604;1257;125052;-80
2023/03/29 11:43:26;;;;;;;;;;;;;;;8.88;46.56;101428.88;107576;1254;75031;-80
2023/03/29 11:46:07;;;;;;;;;;;;;;;9.11;46.37;101427.91;107858;1257;66020;-80
2023/03/29 11:48:36;;;;;;;;;;;;;;;9.32;46.26;101422.99;107759;1256;124711;-80
2023/03/29 11:51:15;;;;;;;;;;;;;;;9.57;46.24;101420.50;107876;1260;61219;-80
2023/03/29 11:53:42;;;;;;;;;;;;;;;9.85;45.88;101414.40;107299;1257;124342;-80
2023/03/29 11:56:11;;;;;;;;;;;;;;;10.05;45.66;101408.48;107539;1258;75401;-80
2023/03/29 11:58:39;;;;;;;;;;;;;;;10.19;45.54;101405.51;107483;1254;125060;-80
2023/03/29 12:01:09;;;;;;;;;;;;;;;10.31;45.31;101397.71;107751;1253;72908;-80
2023/03/29 12:04:03;;;;;;;;;;;;;;;10.42;45.15;101399.35;107580;1254;61926;-81
2023/03/29 12:06:56;;;;;;;;;;;;;;;10.57;45.14;101399.70;107672;1257;125789;-81
2023/03/29 12:09:33;;;;;;;;;;;;;;;10.83;45.13;101390.08;108045;1260;76715;-81
2023/03/29 12:12:01;;;;;;;;;;;;;;;11.01;44.62;101390.00;107239;1265;124499;-82
2023/03/29 12:14:41;;;;;;;;;;;;;;;11.14;44.53;101389.54;107787;1259;71434;-81
2023/03/29 12:17:08;;;;;;;;;;;;;;;11.28;44.43;101391.23;108532;1259;125176;-82
2023/03/29 12:19:55;;;;;;;;;;;;;;;11.44;44.41;101390.86;108743;1259;59897;-82
2023/03/29 12:22:23;;;;;;;;;;;;;;;11.62;44.34;101390.73;107528;1259;124638;-82
2023/03/29 12:24:50;;;;;;;;;;;;;;;11.71;43.98;101392.21;107328;1260;65471;-81
2023/03/29 12:27:40;;;;;;;;;;;;;;;11.76;43.86;101389.39;108286;1259;72073;-81
2023/03/29 12:30:26;;;;;;;;;;;;;;;11.76;43.73;101386.91;107215;1259;125255;-81
2023/03/29 12:33:14;;;;;;;;;;;;;;;11.71;43.67;101386.23;107201;1260;62317;-81
2023/03/29 12:36:17;;;;;;;;;;;;;;;11.80;43.58;101380.20;107384;1260;124771;-82
2023/03/29 12:38:44;;;;;;;;;;;;;;;11.88;43.31;101374.79;107046;1264;65841;-81
2023/03/29 12:41:15;;;;;;;;;;;;;;;11.90;43.17;101371.52;107274;1260;125324;-82
2023/03/29 12:43:42;;;;;;;;;;;;;;;12.05;43.41;101373.75;107311;1259;61102;-84
2023/03/29 12:46:31;;;;;;;;;;;;;;;12.22;43.46;101370.72;107420;1254;60420;-83
2023/03/29 12:49:19;;;;;;;;;;;;;;;12.32;43.01;101372.38;107594;1253;74027;-83
2023/03/29 12:51:48;;;;;;;;;;;;;;;12.06;42.50;101373.59;107684;1254;66036;-84